Flight Track Log - Related Links

Times and Time Zones

All times are in EDT time to prevent confusion due to time zone crossing. See the DAL3926 flight status page for this flight to view local times or setup timezone preferences in your user account.


Time Position Orientation Groundspeed Altitude Reporting Facility
EDT Latitude Longitude Course Direction KTS MPH feet Rate Location/Type
Tue 12:31:17 PM 44.9047 -93.2494 45° Northeast 164 189 2,500  Level FAA TRACON SMA TRACON (SMA)
Tue 12:31:37 PM 44.9119 -93.2681 299° West 171 197 3,200 2,250 Climbing FAA TRACON SMA TRACON (SMA)
Tue 12:31:57 PM 44.9208 -93.2869 304° West 187 215 4,000 2,550 Climbing FAA TRACON SMA TRACON (SMA)
Tue 12:32:17 PM 44.9397 -93.3019 331° Northwest 204 235 4,900 2,400 Climbing FAA TRACON SMA TRACON (SMA)
Tue 12:32:37 PM 44.9569 -93.3117 338° Northwest 215 247 5,600 2,100 Climbing FAA TRACON SMA TRACON (SMA)
Tue 12:32:57 PM 44.9769 -93.3186 346° North 233 268 6,300 1,950 Climbing FAA TRACON SMA TRACON (SMA)
Tue 12:33:17 PM 45.0044 -93.3131 North 260 299 6,900 900 Climbing FAA TRACON SMA TRACON (SMA)
Tue 12:33:37 PM 45.0267 -93.3058 13° North 268 308 6,900  Level FAA TRACON SMA TRACON (SMA)
Tue 12:33:57 PM 45.0486 -93.2983 14° North 266 306 6,900  Level FAA TRACON SMA TRACON (SMA)
Tue 12:34:00 PM 45.1707 -93.3144 45° Northeast  Level FlightAware Approximate
Tue 12:34:17 PM 45.0761 -93.2903 12° North 263 303 6,900  Level FAA TRACON SMA TRACON (SMA)
Tue 12:34:36 PM 45.0981 -93.2842 11° North 261 300 7,000 462 Climbing FAA TRACON SMA TRACON (SMA)
Tue 12:34:56 PM 45.1203 -93.2772 12° North 264 304 7,200 2,200 Climbing FAA TRACON SMA TRACON (SMA)
Tue 12:35:00 PM 45.2312 -93.2293 45° Northeast  Level FlightAware Approximate
Tue 12:35:36 PM 45.1719 -93.2592 14° North 277 319 9,200  Level FAA TRACON SMA TRACON (SMA)
Tue 12:35:56 PM 45.1956 -93.2492 17° North 285 328 9,900 2,488 Climbing FAA TRACON SMA TRACON (SMA)
Tue 12:36:00 PM 45.2912 -93.1436 45° Northeast  Level FlightAware Approximate
Tue 12:36:17 PM 45.2253 -93.2328 21° North 296 341 10,900  Level FAA TRACON SMA TRACON (SMA)
Tue 12:36:37 PM 45.2492 -93.2172 25° Northeast 303 349 11,800 1,650 Climbing FAA TRACON SMA TRACON (SMA)
Tue 12:36:57 PM 45.2739 -93.2014 24° Northeast 310 357 12,000 450 Climbing FAA TRACON SMA TRACON (SMA)
Tue 12:37:17 PM 45.3078 -93.1806 23° Northeast 336 387 12,100 150 Climbing FAA TRACON SMA TRACON (SMA)
Tue 12:37:37 PM 45.3367 -93.1628 23° Northeast 360 414 12,100 -150 Level FAA TRACON SMA TRACON (SMA)
Tue 12:37:57 PM 45.3669 -93.1433 24° Northeast 380 437 12,000 -150 Descending FAA TRACON SMA TRACON (SMA)
Tue 12:38:17 PM 45.4053 -93.1203 23° Northeast 391 450 12,000  Level FAA TRACON SMA TRACON (SMA)
Tue 12:38:37 PM 45.4358 -93.1014 23° Northeast 391 450 12,000  Level FAA TRACON SMA TRACON (SMA)
Tue 12:38:57 PM 45.4664 -93.0814 25° Northeast 390 449 12,000  Level FAA TRACON SMA TRACON (SMA)
Tue 12:39:17 PM 45.5044 -93.0575 24° Northeast 390 449 12,000  Level FAA TRACON SMA TRACON (SMA)
Tue 12:39:37 PM 45.5347 -93.0389 23° Northeast 390 449 12,000  Level FAA TRACON SMA TRACON (SMA)
Tue 12:39:57 PM 45.5656 -93.0206 23° Northeast 388 447 12,000  Level FAA TRACON SMA TRACON (SMA)
Tue 12:40:17 PM 45.6036 -92.9958 24° Northeast 390 449 12,000  Level FAA TRACON SMA TRACON (SMA)
Tue 12:40:38 PM 45.6339 -92.9769 24° Northeast 390 449 12,000  Level FAA TRACON SMA TRACON (SMA)
Tue 12:40:56 PM 45.6644 -92.9575 24° Northeast 389 448 12,000  Level FAA TRACON SMA TRACON (SMA)
Tue 12:41:17 PM 45.7025 -92.9328 24° Northeast 391 450 12,000  Level FAA TRACON SMA TRACON (SMA)
Tue 12:41:37 PM 45.7333 -92.9136 23° Northeast 391 450 12,000  Level FAA TRACON SMA TRACON (SMA)
Tue 12:41:57 PM 45.7636 -92.8942 24° Northeast 391 450 12,000  Level FAA TRACON SMA TRACON (SMA)
Tue 12:42:17 PM 45.8022 -92.8722 22° Northeast 389 448 12,000  Level FAA TRACON SMA TRACON (SMA)
Tue 12:42:37 PM 45.8322 -92.8517 26° Northeast 388 447 12,000  Level FAA TRACON SMA TRACON (SMA)
Tue 12:42:57 PM 45.8478 -92.8433 20° North 387 445 12,000 118 Level FAA TRACON SMA TRACON (SMA)
Tue 12:43:28 PM 45.9031 -92.8033 27° Northeast 383 441 12,100  Climbing Minneapolis Center
Tue 12:44:30 PM 45.9997 -92.7422 24° Northeast 382 440 12,000 -49 Descending Minneapolis Center
Tue 12:45:31 PM 46.0964 -92.6822 23° Northeast 381 438 12,000  Level Minneapolis Center
Tue 12:46:33 PM 46.2125 -92.6044 25° Northeast 384 442 12,000  Level Minneapolis Center
Tue 12:47:35 PM 46.3003 -92.5403 27° Northeast 382 440 12,000 -49 Level Minneapolis Center
Tue 12:48:36 PM 46.3906 -92.4572 32° Northeast 383 441 11,900 -537 Descending Minneapolis Center
Tue 12:49:38 PM 46.4678 -92.3875 32° Northeast 345 397 10,900 -1,355 Descending Minneapolis Center
Tue 12:50:40 PM 46.5350 -92.3267 32° Northeast 300 345 9,100 -1,951 Descending Minneapolis Center
Tue 12:51:41 PM 46.6136 -92.2572 31° Northeast 285 328 6,900 -1,951 Descending Minneapolis Center
Tue 12:52:43 PM 46.6750 -92.1978 34° Northeast 277 319 5,100 -927 Descending Minneapolis Center
Tue 12:53:44 PM 46.7061 -92.1150 61° Northeast 250 288 5,000 -537 Descending Minneapolis Center
Tue 12:54:46 PM 46.7442 -92.0403 53° Northeast 238 274 4,000 -968 Descending Minneapolis Center
Tue 12:55:48 PM 46.8028 -92.0108 19° North 228 262 3,000 -968 Descending Minneapolis Center

Login

Don't have an account? Register now (free) for customized features, flight alerts, and more!